BAW907 EDDF-EGLL
Flight info
| Callsign | BAW907 |
|---|---|
| Flight time | N/A |
| Altitude | 40000 |
| Route | OBOKA3D/07C OBOKA Z29 TORNU DCT ABNED L980 LOGAN |
| Aircraft | B772/H-SDE2E3FGHIJ5LORVWXY/LB1D1 |
Departure
| Time | 2026-05-07 19:55 |
|---|---|
| Airport | Frankfurt Main Airport (EDDF) |
Arrival
| Time | N/A |
|---|---|
| Airport | London Heathrow Airport (EGLL) |
| Time | Latitude | Longitude | Altitude | Speed | Heading |
|---|---|---|---|---|---|
| 2026-05-07 19:30 | 50.05043 | 8.58640 | 385 ft | 0 kts | 340° |
| 2026-05-07 19:38 | 50.05021 | 8.58652 | 383 ft | 4 kts | 340° |
| 2026-05-07 19:39 | 50.04993 | 8.58669 | 382 ft | 4 kts | 335° |
| 2026-05-07 19:39 | 50.04974 | 8.58690 | 380 ft | 2 kts | 294° |
| 2026-05-07 19:39 | 50.04970 | 8.58728 | 379 ft | 3 kts | 262° |
| 2026-05-07 19:39 | 50.04975 | 8.58754 | 379 ft | 3 kts | 250° |
| 2026-05-07 19:40 | 50.04981 | 8.58806 | 378 ft | 3 kts | 251° |
| 2026-05-07 19:40 | 50.04984 | 8.58817 | 378 ft | 0 kts | 251° |
| 2026-05-07 19:44 | 50.04981 | 8.58808 | 378 ft | 4 kts | 251° |
| 2026-05-07 19:44 | 50.04945 | 8.58651 | 379 ft | 24 kts | 250° |
| 2026-05-07 19:45 | 50.04884 | 8.58392 | 383 ft | 21 kts | 250° |
| 2026-05-07 19:45 | 50.04834 | 8.58180 | 386 ft | 21 kts | 250° |
| 2026-05-07 19:45 | 50.04761 | 8.57965 | 380 ft | 24 kts | 226° |
| 2026-05-07 19:45 | 50.04668 | 8.57735 | 376 ft | 26 kts | 250° |
| 2026-05-07 19:46 | 50.04604 | 8.57464 | 375 ft | 27 kts | 250° |
| 2026-05-07 19:46 | 50.04543 | 8.57208 | 377 ft | 21 kts | 250° |
| 2026-05-07 19:46 | 50.04517 | 8.57098 | 376 ft | 4 kts | 251° |
| 2026-05-07 19:46 | 50.04509 | 8.57062 | 376 ft | 0 kts | 251° |
| 2026-05-07 19:47 | 50.04507 | 8.57053 | 376 ft | 4 kts | 251° |
| 2026-05-07 19:47 | 50.04479 | 8.56933 | 375 ft | 11 kts | 251° |
| 2026-05-07 19:47 | 50.04448 | 8.56797 | 374 ft | 15 kts | 248° |
| 2026-05-07 19:47 | 50.04414 | 8.56665 | 371 ft | 13 kts | 248° |
| 2026-05-07 19:48 | 50.04377 | 8.56521 | 370 ft | 15 kts | 249° |
| 2026-05-07 19:48 | 50.04335 | 8.56346 | 366 ft | 15 kts | 250° |
| 2026-05-07 19:48 | 50.04302 | 8.56239 | 365 ft | 10 kts | 213° |
| 2026-05-07 19:48 | 50.04218 | 8.56256 | 364 ft | 14 kts | 159° |
| 2026-05-07 19:49 | 50.04137 | 8.56270 | 361 ft | 13 kts | 212° |
| 2026-05-07 19:49 | 50.04090 | 8.56121 | 359 ft | 17 kts | 251° |
| 2026-05-07 19:49 | 50.04045 | 8.55931 | 356 ft | 19 kts | 249° |
| 2026-05-07 19:49 | 50.03992 | 8.55716 | 355 ft | 21 kts | 250° |
| 2026-05-07 19:50 | 50.03951 | 8.55543 | 354 ft | 17 kts | 250° |
| 2026-05-07 19:50 | 50.03908 | 8.55360 | 354 ft | 18 kts | 250° |
| 2026-05-07 19:50 | 50.03860 | 8.55162 | 353 ft | 20 kts | 250° |
| 2026-05-07 19:50 | 50.03807 | 8.54940 | 349 ft | 23 kts | 249° |
| 2026-05-07 19:51 | 50.03748 | 8.54699 | 345 ft | 25 kts | 250° |
| 2026-05-07 19:51 | 50.03686 | 8.54433 | 343 ft | 26 kts | 250° |
| 2026-05-07 19:51 | 50.03623 | 8.54164 | 345 ft | 25 kts | 250° |
| 2026-05-07 19:51 | 50.03561 | 8.53904 | 347 ft | 25 kts | 250° |
| 2026-05-07 19:52 | 50.03500 | 8.53649 | 349 ft | 25 kts | 249° |
| 2026-05-07 19:52 | 50.03445 | 8.53422 | 346 ft | 20 kts | 250° |
| 2026-05-07 19:52 | 50.03388 | 8.53336 | 344 ft | 10 kts | 183° |
| 2026-05-07 19:52 | 50.03325 | 8.53407 | 343 ft | 13 kts | 127° |
| 2026-05-07 19:53 | 50.03280 | 8.53518 | 341 ft | 9 kts | 95° |
| 2026-05-07 19:53 | 50.03290 | 8.53583 | 341 ft | 0 kts | 67° |
| 2026-05-07 19:53 | 50.03290 | 8.53584 | 341 ft | 0 kts | 67° |
| 2026-05-07 19:54 | 50.03297 | 8.53608 | 341 ft | 11 kts | 68° |
| 2026-05-07 19:54 | 50.03392 | 8.54007 | 341 ft | 75 kts | 72° |
| 2026-05-07 19:54 | 50.03660 | 8.55121 | 349 ft | 141 kts | 71° |
| 2026-05-07 19:54 | 50.04041 | 8.56747 | 584 ft | 171 kts | 70° |
| 2026-05-07 19:55 | 50.04439 | 8.58441 | 1280 ft | 172 kts | 68° |
| 2026-05-07 19:55 | 50.04915 | 8.60138 | 1795 ft | 175 kts | 71° |
| 2026-05-07 19:55 | 50.05275 | 8.62014 | 1955 ft | 191 kts | 72° |
| 2026-05-07 19:55 | 50.05716 | 8.64088 | 2098 ft | 210 kts | 71° |
| 2026-05-07 19:56 | 50.06211 | 8.66306 | 2400 ft | 228 kts | 70° |
| 2026-05-07 19:56 | 50.06759 | 8.68722 | 2774 ft | 244 kts | 67° |
| 2026-05-07 19:56 | 50.07716 | 8.70919 | 3234 ft | 255 kts | 42° |
| 2026-05-07 19:56 | 50.09210 | 8.72371 | 3917 ft | 257 kts | 25° |
| 2026-05-07 19:57 | 50.10856 | 8.73509 | 4694 ft | 258 kts | 23° |
| 2026-05-07 19:57 | 50.12501 | 8.74609 | 5373 ft | 262 kts | 23° |
| 2026-05-07 19:57 | 50.14160 | 8.75725 | 6105 ft | 263 kts | 23° |
| 2026-05-07 19:57 | 50.15292 | 8.76490 | 6555 ft | 265 kts | 22° |
| 2026-05-07 19:58 | 50.16984 | 8.77635 | 7165 ft | 270 kts | 22° |
| 2026-05-07 19:58 | 50.19300 | 8.79204 | 7964 ft | 275 kts | 22° |
| 2026-05-07 19:58 | 50.21053 | 8.80393 | 8541 ft | 279 kts | 22° |
| 2026-05-07 19:58 | 50.22846 | 8.81557 | 9100 ft | 281 kts | 16° |
| 2026-05-07 19:59 | 50.24780 | 8.81942 | 9604 ft | 282 kts | 355° |
| 2026-05-07 19:59 | 50.26656 | 8.81226 | 10105 ft | 283 kts | 334° |
| 2026-05-07 19:59 | 50.28302 | 8.79477 | 10380 ft | 293 kts | 314° |
| 2026-05-07 19:59 | 50.29471 | 8.76814 | 10506 ft | 310 kts | 294° |
| 2026-05-07 20:00 | 50.30210 | 8.73551 | 10680 ft | 327 kts | 288° |
| 2026-05-07 20:00 | 50.30918 | 8.70086 | 10907 ft | 342 kts | 288° |
| 2026-05-07 20:00 | 50.31676 | 8.66501 | 11154 ft | 357 kts | 289° |
| 2026-05-07 20:00 | 50.32486 | 8.62754 | 11576 ft | 368 kts | 289° |
| 2026-05-07 20:01 | 50.33311 | 8.58961 | 12241 ft | 372 kts | 289° |
| 2026-05-07 20:01 | 50.34140 | 8.55147 | 12974 ft | 375 kts | 289° |
| 2026-05-07 20:01 | 50.34981 | 8.51275 | 13726 ft | 379 kts | 289° |
| 2026-05-07 20:01 | 50.35823 | 8.47390 | 14517 ft | 383 kts | 288° |
| 2026-05-07 20:02 | 50.36678 | 8.43406 | 15371 ft | 387 kts | 287° |
| 2026-05-07 20:02 | 50.37243 | 8.39329 | 16214 ft | 391 kts | 277° |
| 2026-05-07 20:02 | 50.37360 | 8.35069 | 17031 ft | 395 kts | 268° |
| 2026-05-07 20:02 | 50.37004 | 8.30836 | 17858 ft | 398 kts | 257° |
| 2026-05-07 20:03 | 50.36243 | 8.26670 | 18698 ft | 402 kts | 252° |
| 2026-05-07 20:03 | 50.35395 | 8.22496 | 19499 ft | 407 kts | 252° |
| 2026-05-07 20:03 | 50.34534 | 8.18262 | 20279 ft | 412 kts | 252° |
| 2026-05-07 20:03 | 50.33667 | 8.13986 | 21065 ft | 416 kts | 252° |
| 2026-05-07 20:04 | 50.32796 | 8.09684 | 21832 ft | 420 kts | 252° |
| 2026-05-07 20:04 | 50.31923 | 8.05372 | 22584 ft | 424 kts | 253° |
| 2026-05-07 20:04 | 50.31038 | 8.00919 | 23326 ft | 428 kts | 255° |
| 2026-05-07 20:04 | 50.30470 | 7.96364 | 24003 ft | 433 kts | 263° |
| 2026-05-07 20:05 | 50.30353 | 7.91644 | 24672 ft | 438 kts | 272° |
| 2026-05-07 20:05 | 50.30703 | 7.86951 | 25325 ft | 443 kts | 281° |
| 2026-05-07 20:05 | 50.31538 | 7.82286 | 25975 ft | 448 kts | 290° |
| 2026-05-07 20:05 | 50.32771 | 7.77818 | 26607 ft | 452 kts | 295° |
| 2026-05-07 20:06 | 50.34302 | 7.73521 | 27225 ft | 457 kts | 302° |
| 2026-05-07 20:06 | 50.36241 | 7.69564 | 27795 ft | 462 kts | 311° |
| 2026-05-07 20:06 | 50.38543 | 7.66072 | 28338 ft | 468 kts | 319° |
| 2026-05-07 20:06 | 50.41190 | 7.63111 | 28880 ft | 473 kts | 328° |
| 2026-05-07 20:07 | 50.44152 | 7.60744 | 29452 ft | 477 kts | 335° |
| 2026-05-07 20:07 | 50.47218 | 7.58676 | 30174 ft | 476 kts | 335° |
| 2026-05-07 20:07 | 50.50290 | 7.56615 | 31008 ft | 473 kts | 335° |
| 2026-05-07 20:07 | 50.53280 | 7.54593 | 31736 ft | 470 kts | 335° |
| 2026-05-07 20:08 | 50.56236 | 7.52361 | 32358 ft | 468 kts | 329° |
| 2026-05-07 20:08 | 50.58979 | 7.49685 | 32929 ft | 467 kts | 326° |
| 2026-05-07 20:08 | 50.61712 | 7.46905 | 33537 ft | 466 kts | 326° |
| 2026-05-07 20:08 | 50.64421 | 7.44136 | 34135 ft | 465 kts | 326° |
| 2026-05-07 20:09 | 50.67116 | 7.41376 | 34700 ft | 464 kts | 326° |
| 2026-05-07 20:09 | 50.69806 | 7.38612 | 35155 ft | 463 kts | 324° |
| 2026-05-07 20:09 | 50.72341 | 7.35522 | 35542 ft | 460 kts | 316° |
| 2026-05-07 20:10 | 50.76375 | 7.27827 | 36251 ft | 457 kts | 299° |
| 2026-05-07 20:10 | 50.77895 | 7.23406 | 36600 ft | 456 kts | 296° |
| 2026-05-07 20:10 | 50.79338 | 7.18974 | 36925 ft | 457 kts | 295° |
| 2026-05-07 20:10 | 50.80781 | 7.14523 | 37216 ft | 457 kts | 295° |
| 2026-05-07 20:11 | 50.82223 | 7.10069 | 37479 ft | 459 kts | 295° |
| 2026-05-07 20:11 | 50.83670 | 7.05596 | 37769 ft | 459 kts | 295° |
| 2026-05-07 20:11 | 50.85128 | 7.01082 | 38076 ft | 459 kts | 295° |
| 2026-05-07 20:11 | 50.86568 | 6.96617 | 38363 ft | 459 kts | 295° |
| 2026-05-07 20:12 | 50.88012 | 6.92133 | 38613 ft | 460 kts | 295° |
| 2026-05-07 20:12 | 50.89454 | 6.87648 | 38837 ft | 461 kts | 295° |
| 2026-05-07 20:12 | 50.90919 | 6.83083 | 39098 ft | 462 kts | 295° |
| 2026-05-07 20:12 | 50.92360 | 6.78585 | 39370 ft | 462 kts | 295° |
| 2026-05-07 20:13 | 50.93802 | 6.74081 | 39631 ft | 462 kts | 295° |
| 2026-05-07 20:13 | 50.95248 | 6.69551 | 39883 ft | 462 kts | 295° |
| 2026-05-07 20:13 | 50.96702 | 6.64989 | 40058 ft | 463 kts | 295° |
| 2026-05-07 20:14 | 50.99594 | 6.55887 | 40074 ft | 464 kts | 295° |
| 2026-05-07 20:14 | 51.02473 | 6.46797 | 40078 ft | 462 kts | 295° |
| 2026-05-07 20:15 | 51.05351 | 6.37677 | 40078 ft | 463 kts | 295° |
| 2026-05-07 20:15 | 51.08223 | 6.28538 | 40082 ft | 462 kts | 294° |
| 2026-05-07 20:16 | 51.11085 | 6.19401 | 40080 ft | 462 kts | 294° |
| 2026-05-07 20:16 | 51.13822 | 6.10201 | 40075 ft | 461 kts | 288° |
| 2026-05-07 20:17 | 51.15556 | 6.00458 | 40077 ft | 461 kts | 283° |
| 2026-05-07 20:17 | 51.17158 | 5.90602 | 40075 ft | 460 kts | 283° |
| 2026-05-07 20:18 | 51.18973 | 5.80899 | 40075 ft | 462 kts | 290° |
| 2026-05-07 20:18 | 51.21457 | 5.71471 | 40074 ft | 463 kts | 291° |